Startpagina
METAR-TAF:

METAR-TAF

Vliegvelden :

Aeropuerto de Gran Canaria

Gran Canaria, Spanje

breedte: 27-56N, lengte: 015-23W, hoogte: 23 m

Actueel weer

Dit bericht is 23 minuten geleden gemaakt, om 13:30 UTC
Wind 25 kt uit het noordnoordoosten, variërend tussen het noorden en het noordoosten
Temperatuur 26°C
Vochtigheid 61%
Druk 1019 hPa
Zicht 10 km of meer
Weinig wolken op 2500 ft

METAR: GCLP 211330Z 02025KT 350V050 9999 FEW025 26/18 Q1019 NOSIG

Tijdstip: 14:53 (13:53 UTC)

Verwachting

Dit bericht is 5 uur en het 53 minuten geleden gemaakt, om 08:00 UTC
Verwachting geldig van 21 om 09 UTC tot 22 om 09 UTC
Wind 24 kt uit het noorden
Zicht 10 km of meer
Verspreide wolken op 3000 ft
Kans 30% :
Tijdelijke
van 21 om 14 UTC tot 21 om 20 UTC
Wind 24 kt uit het noorden met uitschieters tot 34 kt

TAF: GCLP 210800Z 2109/2209 01024KT 9999 SCT030 TX27/2114Z TN21/2205Z PROB30 TEMPO 2114/2120 01024G34KT

Waarnemingen en weersverwachtingen van meer dan 4000 vliegvelden (METAR en TAF).

De beschikbare stations zijn de gele en rode punten op de kaart.

Ga met uw muis naar het station om de naam te zien.

Klik dan om waarnemingen en weersverwachtingen te zien.

kaart wijzigen: klik op de groene knoppen met een zwart kruis om in te zoomen, op de groene knop met een streepje om uit te zoomen of op de groene pijlen voor aangrenzende kaarten.


METAR-TAF: